Mountain Springs, Nevada
Current Conditions -  °F | °C
As of 9:56 AM on Monday 22 Dec 2014 (Local Time) from KHND Reporting Station
Clear Clear  
Wind Chill: 63°   Ceiling: Unl
Heat Index: 63°   Visibility: 10mi
Dew Point: 40°   Wind: 9mph
Humidity: 43%   Direction: 250°WSW
Pressure: 30.09"   Gusts: NA
Location:  35.8437°N, 115.134°W
Report Text: KHND 221756Z 25008KT 10SM CLR 17/04 A3009 RMK AO2 SLPNO 6//// T01720044
Loading
Personal Weather Stations






























Interactive Weather Map New forecast layout! Learn more

10-Day Weather Forecast

Advertisements
Track Severe Weather on mobile